sensor_id;sensor_type;location;lat;lon;timestamp;temperature;humidity
3051;DHT22;1535;51.098;6.414;2022-10-16T00:01:23;13.80;99.90
3051;DHT22;1535;51.098;6.414;2022-10-16T00:03:51;13.80;99.90
3051;DHT22;1535;51.098;6.414;2022-10-16T00:06:19;13.80;99.90
3051;DHT22;1535;51.098;6.414;2022-10-16T00:08:47;13.70;99.90
3051;DHT22;1535;51.098;6.414;2022-10-16T00:11:16;13.70;99.90
3051;DHT22;1535;51.098;6.414;2022-10-16T00:13:45;13.70;99.90
3051;DHT22;1535;51.098;6.414;2022-10-16T00:16:13;13.80;99.90
3051;DHT22;1535;51.098;6.414;2022-10-16T00:18:41;13.80;99.90
3051;DHT22;1535;51.098;6.414;2022-10-16T00:21:10;13.80;99.90
3051;DHT22;1535;51.098;6.414;2022-10-16T00:23:38;13.80;99.90
3051;DHT22;1535;51.098;6.414;2022-10-16T00:26:07;13.80;99.90
3051;DHT22;1535;51.098;6.414;2022-10-16T00:28:36;13.80;99.90
3051;DHT22;1535;51.098;6.414;2022-10-16T00:31:20;13.80;99.90
3051;DHT22;1535;51.098;6.414;2022-10-16T00:33:48;13.70;99.90
3051;DHT22;1535;51.098;6.414;2022-10-16T00:36:18;13.70;99.90
3051;DHT22;1535;51.098;6.414;2022-10-16T00:38:46;13.70;99.90
3051;DHT22;1535;51.098;6.414;2022-10-16T00:41:15;13.60;99.90
3051;DHT22;1535;51.098;6.414;2022-10-16T00:43:43;13.60;99.90
3051;DHT22;1535;51.098;6.414;2022-10-16T00:46:16;13.60;99.90
3051;DHT22;1535;51.098;6.414;2022-10-16T00:48:48;13.60;99.90
3051;DHT22;1535;51.098;6.414;2022-10-16T00:51:19;13.60;99.90
3051;DHT22;1535;51.098;6.414;2022-10-16T00:53:48;13.60;99.90
3051;DHT22;1535;51.098;6.414;2022-10-16T00:56:16;13.60;99.90
3051;DHT22;1535;51.098;6.414;2022-10-16T00:58:43;13.60;99.90
3051;DHT22;1535;51.098;6.414;2022-10-16T01:01:10;13.50;99.90
3051;DHT22;1535;51.098;6.414;2022-10-16T01:03:37;13.50;99.90
3051;DHT22;1535;51.098;6.414;2022-10-16T01:06:13;13.40;99.90
3051;DHT22;1535;51.098;6.414;2022-10-16T01:08:49;13.40;99.90
3051;DHT22;1535;51.098;6.414;2022-10-16T01:11:23;13.40;99.90
3051;DHT22;1535;51.098;6.414;2022-10-16T01:13:54;13.40;99.90
3051;DHT22;1535;51.098;6.414;2022-10-16T01:16:28;13.40;99.90
3051;DHT22;1535;51.098;6.414;2022-10-16T01:19:01;13.40;99.90
3051;DHT22;1535;51.098;6.414;2022-10-16T01:21:35;13.40;99.90
3051;DHT22;1535;51.098;6.414;2022-10-16T01:24:08;13.40;99.90
3051;DHT22;1535;51.098;6.414;2022-10-16T01:26:52;13.40;99.90
3051;DHT22;1535;51.098;6.414;2022-10-16T01:29:26;13.40;99.90
3051;DHT22;1535;51.098;6.414;2022-10-16T01:32:01;13.40;99.90
3051;DHT22;1535;51.098;6.414;2022-10-16T01:34:32;13.50;99.90
3051;DHT22;1535;51.098;6.414;2022-10-16T01:37:04;13.50;99.90
3051;DHT22;1535;51.098;6.414;2022-10-16T01:39:34;13.50;99.90
3051;DHT22;1535;51.098;6.414;2022-10-16T01:42:05;13.60;99.90
3051;DHT22;1535;51.098;6.414;2022-10-16T01:44:35;13.60;99.90
3051;DHT22;1535;51.098;6.414;2022-10-16T01:47:04;13.60;99.90
3051;DHT22;1535;51.098;6.414;2022-10-16T01:49:34;13.60;99.90
3051;DHT22;1535;51.098;6.414;2022-10-16T01:52:04;13.60;99.90
3051;DHT22;1535;51.098;6.414;2022-10-16T01:54:35;13.60;99.90
3051;DHT22;1535;51.098;6.414;2022-10-16T01:57:04;13.60;99.90
3051;DHT22;1535;51.098;6.414;2022-10-16T01:59:37;13.60;99.90
3051;DHT22;1535;51.098;6.414;2022-10-16T02:02:07;13.60;99.90
3051;DHT22;1535;51.098;6.414;2022-10-16T02:04:37;13.60;99.90
3051;DHT22;1535;51.098;6.414;2022-10-16T02:07:05;13.60;99.90
3051;DHT22;1535;51.098;6.414;2022-10-16T02:09:34;13.60;99.90
3051;DHT22;1535;51.098;6.414;2022-10-16T02:12:06;13.60;99.90
3051;DHT22;1535;51.098;6.414;2022-10-16T02:14:37;13.60;99.90
3051;DHT22;1535;51.098;6.414;2022-10-16T02:17:10;13.60;99.90
3051;DHT22;1535;51.098;6.414;2022-10-16T02:19:37;13.60;99.90
3051;DHT22;1535;51.098;6.414;2022-10-16T02:22:07;13.60;99.90
3051;DHT22;1535;51.098;6.414;2022-10-16T02:24:39;13.70;99.90
3051;DHT22;1535;51.098;6.414;2022-10-16T02:27:11;13.60;99.90
3051;DHT22;1535;51.098;6.414;2022-10-16T02:29:44;13.70;99.90
3051;DHT22;1535;51.098;6.414;2022-10-16T02:32:16;13.60;99.90
3051;DHT22;1535;51.098;6.414;2022-10-16T02:34:44;13.70;99.90
3051;DHT22;1535;51.098;6.414;2022-10-16T02:37:12;13.60;99.90
3051;DHT22;1535;51.098;6.414;2022-10-16T02:39:40;13.60;99.90
3051;DHT22;1535;51.098;6.414;2022-10-16T02:42:10;13.60;99.90
3051;DHT22;1535;51.098;6.414;2022-10-16T02:44:37;13.60;99.90
3051;DHT22;1535;51.098;6.414;2022-10-16T02:47:06;13.50;99.90
3051;DHT22;1535;51.098;6.414;2022-10-16T02:49:34;13.40;99.90
3051;DHT22;1535;51.098;6.414;2022-10-16T02:52:01;13.40;99.90
3051;DHT22;1535;51.098;6.414;2022-10-16T02:54:29;13.30;99.90
3051;DHT22;1535;51.098;6.414;2022-10-16T02:56:56;13.20;99.90
3051;DHT22;1535;51.098;6.414;2022-10-16T02:59:22;13.10;99.90
3051;DHT22;1535;51.098;6.414;2022-10-16T03:01:49;13.10;99.90
3051;DHT22;1535;51.098;6.414;2022-10-16T03:04:17;13.10;99.90
3051;DHT22;1535;51.098;6.414;2022-10-16T03:06:44;13.00;99.90
3051;DHT22;1535;51.098;6.414;2022-10-16T03:09:11;13.00;99.90
3051;DHT22;1535;51.098;6.414;2022-10-16T03:11:37;13.00;99.90
3051;DHT22;1535;51.098;6.414;2022-10-16T03:14:04;13.00;99.90
3051;DHT22;1535;51.098;6.414;2022-10-16T03:16:31;13.00;99.90
3051;DHT22;1535;51.098;6.414;2022-10-16T03:18:58;13.00;99.90
3051;DHT22;1535;51.098;6.414;2022-10-16T03:21:26;13.00;99.90
3051;DHT22;1535;51.098;6.414;2022-10-16T03:23:53;12.90;99.90
3051;DHT22;1535;51.098;6.414;2022-10-16T03:26:20;13.00;99.90
3051;DHT22;1535;51.098;6.414;2022-10-16T03:28:47;12.90;99.90
3051;DHT22;1535;51.098;6.414;2022-10-16T03:31:15;12.90;99.90
3051;DHT22;1535;51.098;6.414;2022-10-16T03:33:42;12.90;99.90
3051;DHT22;1535;51.098;6.414;2022-10-16T03:36:09;12.90;99.90
3051;DHT22;1535;51.098;6.414;2022-10-16T03:38:38;12.80;99.90
3051;DHT22;1535;51.098;6.414;2022-10-16T03:41:04;12.80;99.90
3051;DHT22;1535;51.098;6.414;2022-10-16T03:43:33;12.70;99.90
3051;DHT22;1535;51.098;6.414;2022-10-16T03:46:00;12.60;99.90
3051;DHT22;1535;51.098;6.414;2022-10-16T03:48:29;12.60;99.90
3051;DHT22;1535;51.098;6.414;2022-10-16T03:50:56;12.50;99.90
3051;DHT22;1535;51.098;6.414;2022-10-16T03:53:22;12.40;99.90
3051;DHT22;1535;51.098;6.414;2022-10-16T03:55:50;12.30;99.90
3051;DHT22;1535;51.098;6.414;2022-10-16T03:58:17;12.30;99.90
3051;DHT22;1535;51.098;6.414;2022-10-16T04:00:45;12.20;99.90
3051;DHT22;1535;51.098;6.414;2022-10-16T04:03:13;12.20;99.90
3051;DHT22;1535;51.098;6.414;2022-10-16T04:05:40;12.10;99.90
3051;DHT22;1535;51.098;6.414;2022-10-16T04:08:07;12.00;99.90
3051;DHT22;1535;51.098;6.414;2022-10-16T04:10:35;11.90;99.90
3051;DHT22;1535;51.098;6.414;2022-10-16T04:13:03;11.90;99.90
3051;DHT22;1535;51.098;6.414;2022-10-16T04:15:30;11.90;99.90
3051;DHT22;1535;51.098;6.414;2022-10-16T04:17:57;11.90;99.90
3051;DHT22;1535;51.098;6.414;2022-10-16T04:20:24;11.90;99.90
3051;DHT22;1535;51.098;6.414;2022-10-16T04:22:51;11.90;99.90
3051;DHT22;1535;51.098;6.414;2022-10-16T04:25:18;11.90;99.90
3051;DHT22;1535;51.098;6.414;2022-10-16T04:27:45;11.80;99.90
3051;DHT22;1535;51.098;6.414;2022-10-16T04:30:13;11.80;99.90
3051;DHT22;1535;51.098;6.414;2022-10-16T04:32:40;11.70;99.90
3051;DHT22;1535;51.098;6.414;2022-10-16T04:35:08;11.70;99.90
3051;DHT22;1535;51.098;6.414;2022-10-16T04:37:35;11.70;99.90
3051;DHT22;1535;51.098;6.414;2022-10-16T04:40:03;11.60;99.90
3051;DHT22;1535;51.098;6.414;2022-10-16T04:42:30;11.70;99.90
3051;DHT22;1535;51.098;6.414;2022-10-16T04:44:57;11.60;99.90
3051;DHT22;1535;51.098;6.414;2022-10-16T04:47:25;11.70;99.90
3051;DHT22;1535;51.098;6.414;2022-10-16T04:49:52;11.70;99.90
3051;DHT22;1535;51.098;6.414;2022-10-16T04:52:20;11.70;99.90
3051;DHT22;1535;51.098;6.414;2022-10-16T04:54:49;11.80;99.90
3051;DHT22;1535;51.098;6.414;2022-10-16T04:57:16;11.70;99.90
3051;DHT22;1535;51.098;6.414;2022-10-16T04:59:44;11.70;99.90
3051;DHT22;1535;51.098;6.414;2022-10-16T05:02:11;11.60;99.90
3051;DHT22;1535;51.098;6.414;2022-10-16T05:04:40;11.70;99.90
3051;DHT22;1535;51.098;6.414;2022-10-16T05:07:07;11.60;99.90
3051;DHT22;1535;51.098;6.414;2022-10-16T05:09:33;11.60;99.90
3051;DHT22;1535;51.098;6.414;2022-10-16T05:12:00;11.70;99.90
3051;DHT22;1535;51.098;6.414;2022-10-16T05:14:30;11.70;99.90
3051;DHT22;1535;51.098;6.414;2022-10-16T05:16:57;11.70;99.90
3051;DHT22;1535;51.098;6.414;2022-10-16T05:19:24;11.70;99.90
3051;DHT22;1535;51.098;6.414;2022-10-16T05:21:52;11.70;99.90
3051;DHT22;1535;51.098;6.414;2022-10-16T05:24:18;11.70;99.90
3051;DHT22;1535;51.098;6.414;2022-10-16T05:26:46;11.70;99.90
3051;DHT22;1535;51.098;6.414;2022-10-16T05:29:13;11.80;99.90
3051;DHT22;1535;51.098;6.414;2022-10-16T05:31:40;11.80;99.90
3051;DHT22;1535;51.098;6.414;2022-10-16T05:34:07;11.80;99.90
3051;DHT22;1535;51.098;6.414;2022-10-16T05:36:33;11.80;99.90
3051;DHT22;1535;51.098;6.414;2022-10-16T05:39:02;11.90;99.90
3051;DHT22;1535;51.098;6.414;2022-10-16T05:41:29;12.00;99.90
3051;DHT22;1535;51.098;6.414;2022-10-16T05:43:57;12.00;99.90
3051;DHT22;1535;51.098;6.414;2022-10-16T05:46:24;12.00;99.90
3051;DHT22;1535;51.098;6.414;2022-10-16T05:48:52;12.00;99.90
3051;DHT22;1535;51.098;6.414;2022-10-16T05:51:20;11.90;99.90
3051;DHT22;1535;51.098;6.414;2022-10-16T05:53:46;12.00;99.90
3051;DHT22;1535;51.098;6.414;2022-10-16T05:56:15;12.00;99.90
3051;DHT22;1535;51.098;6.414;2022-10-16T05:58:42;11.90;99.90
3051;DHT22;1535;51.098;6.414;2022-10-16T06:01:12;11.90;99.90
3051;DHT22;1535;51.098;6.414;2022-10-16T06:03:39;11.80;99.90
3051;DHT22;1535;51.098;6.414;2022-10-16T06:06:10;11.80;99.90
3051;DHT22;1535;51.098;6.414;2022-10-16T06:08:38;11.80;99.90
3051;DHT22;1535;51.098;6.414;2022-10-16T06:11:06;11.80;99.90
3051;DHT22;1535;51.098;6.414;2022-10-16T06:13:35;11.80;99.90
3051;DHT22;1535;51.098;6.414;2022-10-16T06:16:03;11.70;99.90
3051;DHT22;1535;51.098;6.414;2022-10-16T06:18:30;11.80;99.90
3051;DHT22;1535;51.098;6.414;2022-10-16T06:20:57;11.90;99.90
3051;DHT22;1535;51.098;6.414;2022-10-16T06:23:24;12.00;99.90
3051;DHT22;1535;51.098;6.414;2022-10-16T06:25:51;12.00;99.90
3051;DHT22;1535;51.098;6.414;2022-10-16T06:28:18;12.00;99.90
3051;DHT22;1535;51.098;6.414;2022-10-16T06:30:46;12.00;99.90
3051;DHT22;1535;51.098;6.414;2022-10-16T06:33:13;12.00;99.90
3051;DHT22;1535;51.098;6.414;2022-10-16T06:35:40;12.00;99.90
3051;DHT22;1535;51.098;6.414;2022-10-16T06:38:07;12.10;99.90
3051;DHT22;1535;51.098;6.414;2022-10-16T06:40:33;12.20;99.90
3051;DHT22;1535;51.098;6.414;2022-10-16T06:43:00;12.30;99.90
3051;DHT22;1535;51.098;6.414;2022-10-16T06:45:27;12.30;99.90
3051;DHT22;1535;51.098;6.414;2022-10-16T06:47:55;12.40;99.90
3051;DHT22;1535;51.098;6.414;2022-10-16T06:50:22;12.40;99.90
3051;DHT22;1535;51.098;6.414;2022-10-16T06:52:49;12.50;99.90
3051;DHT22;1535;51.098;6.414;2022-10-16T06:55:16;12.50;99.90
3051;DHT22;1535;51.098;6.414;2022-10-16T06:57:44;12.50;99.90
3051;DHT22;1535;51.098;6.414;2022-10-16T07:00:13;12.50;99.90
3051;DHT22;1535;51.098;6.414;2022-10-16T07:02:39;12.50;99.90
3051;DHT22;1535;51.098;6.414;2022-10-16T07:05:08;12.50;99.90
3051;DHT22;1535;51.098;6.414;2022-10-16T07:07:36;12.40;99.90
3051;DHT22;1535;51.098;6.414;2022-10-16T07:10:03;12.40;99.90
3051;DHT22;1535;51.098;6.414;2022-10-16T07:12:30;12.50;99.90
3051;DHT22;1535;51.098;6.414;2022-10-16T07:14:57;12.50;99.90
3051;DHT22;1535;51.098;6.414;2022-10-16T07:17:24;12.60;99.90
3051;DHT22;1535;51.098;6.414;2022-10-16T07:19:51;12.80;99.90
3051;DHT22;1535;51.098;6.414;2022-10-16T07:22:20;12.80;99.90
3051;DHT22;1535;51.098;6.414;2022-10-16T07:24:47;12.90;99.90
3051;DHT22;1535;51.098;6.414;2022-10-16T07:27:14;13.00;99.90
3051;DHT22;1535;51.098;6.414;2022-10-16T07:29:42;13.00;99.90
3051;DHT22;1535;51.098;6.414;2022-10-16T07:32:08;13.00;99.90
3051;DHT22;1535;51.098;6.414;2022-10-16T07:34:35;13.00;99.90
3051;DHT22;1535;51.098;6.414;2022-10-16T07:37:02;13.10;99.90
3051;DHT22;1535;51.098;6.414;2022-10-16T07:39:30;13.10;99.90
3051;DHT22;1535;51.098;6.414;2022-10-16T07:41:57;13.20;99.90
3051;DHT22;1535;51.098;6.414;2022-10-16T07:44:24;13.30;99.90
3051;DHT22;1535;51.098;6.414;2022-10-16T07:46:51;13.30;99.90
3051;DHT22;1535;51.098;6.414;2022-10-16T07:49:18;13.40;99.90
3051;DHT22;1535;51.098;6.414;2022-10-16T07:51:46;13.50;99.90
3051;DHT22;1535;51.098;6.414;2022-10-16T07:54:13;13.60;99.90
3051;DHT22;1535;51.098;6.414;2022-10-16T07:56:41;13.70;99.90
3051;DHT22;1535;51.098;6.414;2022-10-16T07:59:08;13.70;99.90
3051;DHT22;1535;51.098;6.414;2022-10-16T08:01:35;13.80;99.90
3051;DHT22;1535;51.098;6.414;2022-10-16T08:04:02;13.90;99.90
3051;DHT22;1535;51.098;6.414;2022-10-16T08:06:29;14.00;99.90
3051;DHT22;1535;51.098;6.414;2022-10-16T08:08:55;14.10;99.90
3051;DHT22;1535;51.098;6.414;2022-10-16T08:11:22;14.20;99.90
3051;DHT22;1535;51.098;6.414;2022-10-16T08:13:51;14.30;99.90
3051;DHT22;1535;51.098;6.414;2022-10-16T08:16:18;14.40;99.90
3051;DHT22;1535;51.098;6.414;2022-10-16T08:18:45;14.50;99.90
3051;DHT22;1535;51.098;6.414;2022-10-16T08:21:14;14.60;99.90
3051;DHT22;1535;51.098;6.414;2022-10-16T08:23:42;14.70;99.90
3051;DHT22;1535;51.098;6.414;2022-10-16T08:26:10;14.80;99.90
3051;DHT22;1535;51.098;6.414;2022-10-16T08:28:37;14.90;99.90
3051;DHT22;1535;51.098;6.414;2022-10-16T08:31:08;15.00;99.90
3051;DHT22;1535;51.098;6.414;2022-10-16T08:33:35;15.10;99.90
3051;DHT22;1535;51.098;6.414;2022-10-16T08:36:03;15.20;99.90
3051;DHT22;1535;51.098;6.414;2022-10-16T08:38:31;15.20;99.90
3051;DHT22;1535;51.098;6.414;2022-10-16T08:41:09;15.30;99.90
3051;DHT22;1535;51.098;6.414;2022-10-16T08:43:51;15.40;99.90
3051;DHT22;1535;51.098;6.414;2022-10-16T08:46:37;15.50;99.90
3051;DHT22;1535;51.098;6.414;2022-10-16T08:49:11;15.50;99.90
3051;DHT22;1535;51.098;6.414;2022-10-16T08:51:38;15.60;99.90
3051;DHT22;1535;51.098;6.414;2022-10-16T08:54:21;15.60;99.90
3051;DHT22;1535;51.098;6.414;2022-10-16T08:56:49;15.80;99.90
3051;DHT22;1535;51.098;6.414;2022-10-16T08:59:16;15.90;99.90
3051;DHT22;1535;51.098;6.414;2022-10-16T09:01:47;16.00;99.90
3051;DHT22;1535;51.098;6.414;2022-10-16T09:04:48;16.10;99.90
3051;DHT22;1535;51.098;6.414;2022-10-16T09:07:24;16.10;99.90
3051;DHT22;1535;51.098;6.414;2022-10-16T09:10:09;16.20;99.90
3051;DHT22;1535;51.098;6.414;2022-10-16T09:12:43;16.20;99.90
3051;DHT22;1535;51.098;6.414;2022-10-16T09:15:20;16.30;99.90
3051;DHT22;1535;51.098;6.414;2022-10-16T09:17:55;16.40;99.90
3051;DHT22;1535;51.098;6.414;2022-10-16T09:20:31;16.40;99.90
3051;DHT22;1535;51.098;6.414;2022-10-16T09:23:10;16.50;99.90
3051;DHT22;1535;51.098;6.414;2022-10-16T09:25:39;16.50;99.90
3051;DHT22;1535;51.098;6.414;2022-10-16T09:28:07;16.60;99.90
3051;DHT22;1535;51.098;6.414;2022-10-16T09:30:34;16.70;99.90
3051;DHT22;1535;51.098;6.414;2022-10-16T09:33:03;16.80;99.90
3051;DHT22;1535;51.098;6.414;2022-10-16T09:35:33;16.80;99.90
3051;DHT22;1535;51.098;6.414;2022-10-16T09:38:01;16.90;99.90
3051;DHT22;1535;51.098;6.414;2022-10-16T09:40:30;17.00;99.90
3051;DHT22;1535;51.098;6.414;2022-10-16T09:43:03;17.00;99.90
3051;DHT22;1535;51.098;6.414;2022-10-16T09:45:33;17.00;99.90
3051;DHT22;1535;51.098;6.414;2022-10-16T09:48:11;17.10;99.90
3051;DHT22;1535;51.098;6.414;2022-10-16T09:50:38;17.20;99.90
3051;DHT22;1535;51.098;6.414;2022-10-16T09:53:10;17.10;99.90
3051;DHT22;1535;51.098;6.414;2022-10-16T09:55:47;17.10;99.90
3051;DHT22;1535;51.098;6.414;2022-10-16T09:58:14;17.30;99.90
3051;DHT22;1535;51.098;6.414;2022-10-16T10:00:42;17.60;99.90
3051;DHT22;1535;51.098;6.414;2022-10-16T10:03:30;17.90;99.90
3051;DHT22;1535;51.098;6.414;2022-10-16T10:05:59;18.40;99.90
3051;DHT22;1535;51.098;6.414;2022-10-16T10:08:27;18.80;99.90
3051;DHT22;1535;51.098;6.414;2022-10-16T10:10:54;18.70;99.90
3051;DHT22;1535;51.098;6.414;2022-10-16T10:13:22;18.50;99.90
3051;DHT22;1535;51.098;6.414;2022-10-16T10:15:51;18.40;99.90
3051;DHT22;1535;51.098;6.414;2022-10-16T10:18:21;18.10;99.90
3051;DHT22;1535;51.098;6.414;2022-10-16T10:20:57;17.90;99.90
3051;DHT22;1535;51.098;6.414;2022-10-16T10:23:26;17.80;99.90
3051;DHT22;1535;51.098;6.414;2022-10-16T10:25:57;17.90;99.90
3051;DHT22;1535;51.098;6.414;2022-10-16T10:28:43;18.50;99.90
3051;DHT22;1535;51.098;6.414;2022-10-16T10:31:16;19.00;99.90
3051;DHT22;1535;51.098;6.414;2022-10-16T10:33:48;19.00;99.90
3051;DHT22;1535;51.098;6.414;2022-10-16T10:36:23;19.10;99.90
3051;DHT22;1535;51.098;6.414;2022-10-16T10:38:56;19.70;99.90
3051;DHT22;1535;51.098;6.414;2022-10-16T10:44:45;20.50;99.90
3051;DHT22;1535;51.098;6.414;2022-10-16T10:47:26;20.50;99.90
3051;DHT22;1535;51.098;6.414;2022-10-16T10:50:07;20.50;99.90
3051;DHT22;1535;51.098;6.414;2022-10-16T10:52:43;20.80;99.90
3051;DHT22;1535;51.098;6.414;2022-10-16T10:55:21;21.20;99.90
3051;DHT22;1535;51.098;6.414;2022-10-16T10:58:13;22.10;99.90
3051;DHT22;1535;51.098;6.414;2022-10-16T11:00:50;22.90;99.90
3051;DHT22;1535;51.098;6.414;2022-10-16T11:03:31;22.70;99.90
3051;DHT22;1535;51.098;6.414;2022-10-16T11:06:06;22.50;99.90
3051;DHT22;1535;51.098;6.414;2022-10-16T11:08:37;22.70;99.90
3051;DHT22;1535;51.098;6.414;2022-10-16T11:11:09;23.10;99.90
3051;DHT22;1535;51.098;6.414;2022-10-16T11:13:42;23.30;99.90
3051;DHT22;1535;51.098;6.414;2022-10-16T11:16:15;22.90;99.90
3051;DHT22;1535;51.098;6.414;2022-10-16T11:18:49;22.80;99.90
3051;DHT22;1535;51.098;6.414;2022-10-16T11:21:21;23.60;99.90
3051;DHT22;1535;51.098;6.414;2022-10-16T11:23:53;23.60;99.90
3051;DHT22;1535;51.098;6.414;2022-10-16T11:26:26;23.30;99.90
3051;DHT22;1535;51.098;6.414;2022-10-16T11:28:55;23.40;99.90
3051;DHT22;1535;51.098;6.414;2022-10-16T11:31:28;23.40;99.90
3051;DHT22;1535;51.098;6.414;2022-10-16T11:34:03;22.80;99.90
3051;DHT22;1535;51.098;6.414;2022-10-16T11:36:36;22.50;99.90
3051;DHT22;1535;51.098;6.414;2022-10-16T11:39:12;22.60;99.90
3051;DHT22;1535;51.098;6.414;2022-10-16T11:41:44;22.90;99.90
3051;DHT22;1535;51.098;6.414;2022-10-16T11:44:23;23.10;99.90
3051;DHT22;1535;51.098;6.414;2022-10-16T11:47:08;23.10;99.90
3051;DHT22;1535;51.098;6.414;2022-10-16T11:49:40;23.50;99.90
3051;DHT22;1535;51.098;6.414;2022-10-16T11:52:16;23.80;99.90
3051;DHT22;1535;51.098;6.414;2022-10-16T11:54:45;24.00;99.90
3051;DHT22;1535;51.098;6.414;2022-10-16T11:57:17;24.40;99.90
3051;DHT22;1535;51.098;6.414;2022-10-16T11:59:48;23.60;99.90
3051;DHT22;1535;51.098;6.414;2022-10-16T12:02:33;23.30;99.90
3051;DHT22;1535;51.098;6.414;2022-10-16T12:05:11;23.50;99.90
3051;DHT22;1535;51.098;6.414;2022-10-16T12:07:49;22.80;99.90
3051;DHT22;1535;51.098;6.414;2022-10-16T12:10:21;23.10;99.90
3051;DHT22;1535;51.098;6.414;2022-10-16T12:12:48;23.80;99.90
3051;DHT22;1535;51.098;6.414;2022-10-16T12:15:22;24.30;99.90
3051;DHT22;1535;51.098;6.414;2022-10-16T12:17:50;24.60;99.90
3051;DHT22;1535;51.098;6.414;2022-10-16T12:20:22;24.40;99.90
3051;DHT22;1535;51.098;6.414;2022-10-16T12:22:53;24.40;99.90
3051;DHT22;1535;51.098;6.414;2022-10-16T12:25:22;24.90;99.90
3051;DHT22;1535;51.098;6.414;2022-10-16T12:28:17;25.30;99.90
3051;DHT22;1535;51.098;6.414;2022-10-16T12:30:52;25.80;99.90
3051;DHT22;1535;51.098;6.414;2022-10-16T12:33:22;25.30;99.90
3051;DHT22;1535;51.098;6.414;2022-10-16T12:35:50;24.40;99.90
3051;DHT22;1535;51.098;6.414;2022-10-16T12:38:20;24.30;99.90
3051;DHT22;1535;51.098;6.414;2022-10-16T12:40:56;24.40;99.90
3051;DHT22;1535;51.098;6.414;2022-10-16T12:43:36;24.50;99.90
3051;DHT22;1535;51.098;6.414;2022-10-16T12:46:19;24.50;99.90
3051;DHT22;1535;51.098;6.414;2022-10-16T12:48:47;24.30;99.90
3051;DHT22;1535;51.098;6.414;2022-10-16T12:51:23;24.10;99.90
3051;DHT22;1535;51.098;6.414;2022-10-16T12:54:00;23.90;99.90
3051;DHT22;1535;51.098;6.414;2022-10-16T12:56:36;24.30;99.90
3051;DHT22;1535;51.098;6.414;2022-10-16T12:59:12;24.40;99.90
3051;DHT22;1535;51.098;6.414;2022-10-16T13:01:52;25.30;99.90
3051;DHT22;1535;51.098;6.414;2022-10-16T13:04:35;25.10;99.90
3051;DHT22;1535;51.098;6.414;2022-10-16T13:07:33;25.40;99.90
3051;DHT22;1535;51.098;6.414;2022-10-16T13:10:11;26.10;99.90
3051;DHT22;1535;51.098;6.414;2022-10-16T13:12:54;25.80;99.90
3051;DHT22;1535;51.098;6.414;2022-10-16T13:15:34;25.90;99.90
3051;DHT22;1535;51.098;6.414;2022-10-16T13:18:11;26.60;99.90
3051;DHT22;1535;51.098;6.414;2022-10-16T13:20:52;26.40;99.90
3051;DHT22;1535;51.098;6.414;2022-10-16T13:23:24;26.90;99.90
3051;DHT22;1535;51.098;6.414;2022-10-16T13:26:04;27.00;99.60
3051;DHT22;1535;51.098;6.414;2022-10-16T13:28:34;27.30;98.80
3051;DHT22;1535;51.098;6.414;2022-10-16T13:31:02;27.10;98.00
3051;DHT22;1535;51.098;6.414;2022-10-16T13:33:33;26.70;97.60
3051;DHT22;1535;51.098;6.414;2022-10-16T13:36:04;26.40;98.80
3051;DHT22;1535;51.098;6.414;2022-10-16T13:38:32;26.40;98.90
3051;DHT22;1535;51.098;6.414;2022-10-16T13:41:02;26.90;97.70
3051;DHT22;1535;51.098;6.414;2022-10-16T13:43:32;27.20;96.90
3051;DHT22;1535;51.098;6.414;2022-10-16T13:46:03;27.10;98.10
3051;DHT22;1535;51.098;6.414;2022-10-16T13:48:32;27.00;96.50
3051;DHT22;1535;51.098;6.414;2022-10-16T13:51:05;26.10;97.10
3051;DHT22;1535;51.098;6.414;2022-10-16T13:53:34;24.90;97.10
3051;DHT22;1535;51.098;6.414;2022-10-16T13:56:03;24.10;98.90
3051;DHT22;1535;51.098;6.414;2022-10-16T13:58:31;24.10;99.90
3051;DHT22;1535;51.098;6.414;2022-10-16T14:00:59;23.70;99.90
3051;DHT22;1535;51.098;6.414;2022-10-16T14:03:27;23.40;99.90
3051;DHT22;1535;51.098;6.414;2022-10-16T14:05:57;23.50;99.90
3051;DHT22;1535;51.098;6.414;2022-10-16T14:08:27;23.60;99.90
3051;DHT22;1535;51.098;6.414;2022-10-16T14:10:56;23.70;99.90
3051;DHT22;1535;51.098;6.414;2022-10-16T14:13:31;23.50;99.90
3051;DHT22;1535;51.098;6.414;2022-10-16T14:16:01;23.50;99.90
3051;DHT22;1535;51.098;6.414;2022-10-16T14:18:30;23.30;99.90
3051;DHT22;1535;51.098;6.414;2022-10-16T14:21:04;23.30;99.90
3051;DHT22;1535;51.098;6.414;2022-10-16T14:23:33;23.40;99.90
3051;DHT22;1535;51.098;6.414;2022-10-16T14:26:22;23.30;99.90
3051;DHT22;1535;51.098;6.414;2022-10-16T14:29:09;23.00;99.90
3051;DHT22;1535;51.098;6.414;2022-10-16T14:31:37;23.00;99.90
3051;DHT22;1535;51.098;6.414;2022-10-16T14:34:22;22.80;99.90
3051;DHT22;1535;51.098;6.414;2022-10-16T14:36:49;22.70;99.90
3051;DHT22;1535;51.098;6.414;2022-10-16T14:39:19;22.50;99.90
3051;DHT22;1535;51.098;6.414;2022-10-16T14:41:48;22.60;99.90
3051;DHT22;1535;51.098;6.414;2022-10-16T14:44:17;22.60;99.90
3051;DHT22;1535;51.098;6.414;2022-10-16T14:46:45;22.50;99.90
3051;DHT22;1535;51.098;6.414;2022-10-16T14:49:17;22.50;99.90
3051;DHT22;1535;51.098;6.414;2022-10-16T14:51:46;22.50;99.90
3051;DHT22;1535;51.098;6.414;2022-10-16T14:54:14;22.50;99.90
3051;DHT22;1535;51.098;6.414;2022-10-16T14:56:46;22.40;99.90
3051;DHT22;1535;51.098;6.414;2022-10-16T14:59:18;22.30;99.90
3051;DHT22;1535;51.098;6.414;2022-10-16T15:01:46;22.10;99.90
3051;DHT22;1535;51.098;6.414;2022-10-16T15:04:13;21.90;99.90
3051;DHT22;1535;51.098;6.414;2022-10-16T15:06:41;21.80;99.90
3051;DHT22;1535;51.098;6.414;2022-10-16T15:09:08;21.60;99.90
3051;DHT22;1535;51.098;6.414;2022-10-16T15:11:35;21.40;99.90
3051;DHT22;1535;51.098;6.414;2022-10-16T15:14:03;21.00;99.90
3051;DHT22;1535;51.098;6.414;2022-10-16T15:16:33;21.00;99.90
3051;DHT22;1535;51.098;6.414;2022-10-16T15:18:59;20.90;99.90
3051;DHT22;1535;51.098;6.414;2022-10-16T15:21:29;20.80;99.90
3051;DHT22;1535;51.098;6.414;2022-10-16T15:23:56;20.80;99.90
3051;DHT22;1535;51.098;6.414;2022-10-16T15:26:23;20.70;99.90
3051;DHT22;1535;51.098;6.414;2022-10-16T15:28:50;20.70;99.90
3051;DHT22;1535;51.098;6.414;2022-10-16T15:31:16;20.70;99.90
3051;DHT22;1535;51.098;6.414;2022-10-16T15:33:45;20.70;99.90
3051;DHT22;1535;51.098;6.414;2022-10-16T15:36:23;20.70;99.90
3051;DHT22;1535;51.098;6.414;2022-10-16T15:38:50;20.70;99.90
3051;DHT22;1535;51.098;6.414;2022-10-16T15:41:19;20.60;99.90
3051;DHT22;1535;51.098;6.414;2022-10-16T15:43:48;20.60;99.90
3051;DHT22;1535;51.098;6.414;2022-10-16T15:46:16;20.50;99.90
3051;DHT22;1535;51.098;6.414;2022-10-16T15:48:45;20.40;99.90
3051;DHT22;1535;51.098;6.414;2022-10-16T15:51:12;20.40;99.90
3051;DHT22;1535;51.098;6.414;2022-10-16T15:53:40;20.30;99.90
3051;DHT22;1535;51.098;6.414;2022-10-16T15:56:09;20.20;99.90
3051;DHT22;1535;51.098;6.414;2022-10-16T15:58:36;20.20;99.90
3051;DHT22;1535;51.098;6.414;2022-10-16T16:01:04;20.10;99.90
3051;DHT22;1535;51.098;6.414;2022-10-16T16:03:31;20.00;99.90
3051;DHT22;1535;51.098;6.414;2022-10-16T16:06:04;19.90;99.90
3051;DHT22;1535;51.098;6.414;2022-10-16T16:08:32;19.80;99.90
3051;DHT22;1535;51.098;6.414;2022-10-16T16:10:59;19.80;99.90
3051;DHT22;1535;51.098;6.414;2022-10-16T16:13:26;19.70;99.90
3051;DHT22;1535;51.098;6.414;2022-10-16T16:15:53;19.60;99.90
3051;DHT22;1535;51.098;6.414;2022-10-16T16:18:20;19.40;99.90
3051;DHT22;1535;51.098;6.414;2022-10-16T16:20:47;19.30;99.90
3051;DHT22;1535;51.098;6.414;2022-10-16T16:23:15;19.20;99.90
3051;DHT22;1535;51.098;6.414;2022-10-16T16:25:43;19.00;99.90